createdAt,value
2023-03-20T00:00:44.505Z,97909.75
2023-03-20T00:03:10.957Z,97908.63
2023-03-20T00:05:37.806Z,97906.47
2023-03-20T00:08:04.357Z,97906.94
2023-03-20T00:10:30.684Z,97912.81
2023-03-20T00:12:56.976Z,97906.13
2023-03-20T00:15:23.331Z,97908.22
2023-03-20T00:17:49.683Z,97921.03
2023-03-20T00:20:16.055Z,97913.75
2023-03-20T00:22:42.353Z,97913.22
2023-03-20T00:25:08.721Z,97915.34
2023-03-20T00:27:35.173Z,97918.53
2023-03-20T00:30:01.576Z,97917.97
2023-03-20T00:32:28.070Z,97920.31
2023-03-20T00:34:54.334Z,97916.28
2023-03-20T00:37:32.588Z,97914.09
2023-03-20T00:39:58.936Z,97910.88
2023-03-20T00:42:25.198Z,97911.38
2023-03-20T00:44:51.640Z,97908.16
2023-03-20T00:47:18.026Z,97909.44
2023-03-20T00:49:44.625Z,97910.75
2023-03-20T00:52:10.946Z,97910.19
2023-03-20T00:54:37.340Z,97906.97
2023-03-20T00:57:03.718Z,97910.16
2023-03-20T00:59:30.167Z,97913.03
2023-03-20T01:01:56.614Z,97912.47
2023-03-20T01:04:23.164Z,97911.91
2023-03-20T01:06:49.536Z,97912.16
2023-03-20T01:09:16.033Z,97915.88
2023-03-20T01:11:42.613Z,97913.72
2023-03-20T01:14:08.970Z,97919.56
2023-03-20T01:16:35.349Z,97910.97
2023-03-20T01:19:01.762Z,97913.09
2023-03-20T01:21:28.095Z,97916.00
2023-03-20T01:23:54.374Z,97909.06
2023-03-20T01:26:20.745Z,97915.44
2023-03-20T01:28:48.193Z,97911.41
2023-03-20T01:31:14.517Z,97908.75
2023-03-20T01:33:41.038Z,97902.22
2023-03-20T01:36:07.376Z,97913.53
2023-03-20T01:38:34.167Z,97915.38
2023-03-20T01:41:00.512Z,97918.31
2023-03-20T01:43:26.841Z,97912.97
2023-03-20T01:45:53.256Z,97920.41
2023-03-20T01:48:19.644Z,97918.00
2023-03-20T01:50:45.927Z,97921.94
2023-03-20T01:53:12.227Z,97915.00
2023-03-20T01:55:38.596Z,97915.25
2023-03-20T01:58:05.449Z,97905.78
2023-03-20T02:00:31.863Z,97923.75
2023-03-20T02:02:58.348Z,97921.31
2023-03-20T02:05:24.601Z,97925.06
2023-03-20T02:07:51.106Z,97931.69
2023-03-20T02:10:17.376Z,97926.59
2023-03-20T02:12:43.815Z,97930.31
2023-03-20T02:15:10.266Z,97926.03
2023-03-20T02:17:36.539Z,97934.28
2023-03-20T02:20:02.895Z,97936.16
2023-03-20T02:22:29.356Z,97931.28
2023-03-20T02:24:55.673Z,97939.31
2023-03-20T02:27:21.952Z,97929.69
2023-03-20T02:29:48.407Z,97935.28
2023-03-20T02:32:14.843Z,97935.53
2023-03-20T02:34:41.208Z,97930.44
2023-03-20T02:37:07.576Z,97927.44
2023-03-20T02:39:33.934Z,97926.06
2023-03-20T02:42:00.390Z,97938.84
2023-03-20T02:44:26.703Z,97949.75
2023-03-20T02:46:53.037Z,97942.81
2023-03-20T02:49:19.848Z,97949.19
2023-03-20T02:51:46.352Z,97951.03
2023-03-20T02:54:12.592Z,97955.84
2023-03-20T02:56:38.890Z,97964.88
2023-03-20T02:59:05.333Z,97966.97
2023-03-20T03:01:31.665Z,97964.56
2023-03-20T03:03:57.969Z,97964.56
2023-03-20T03:06:24.233Z,97960.28
2023-03-20T03:08:50.669Z,97965.88
2023-03-20T03:11:17.089Z,97964.22
2023-03-20T03:13:43.354Z,97968.75
2023-03-20T03:16:09.761Z,97975.16
2023-03-20T03:18:36.189Z,97973.56
2023-03-20T03:21:02.521Z,97976.22
2023-03-20T03:23:28.900Z,97978.06
2023-03-20T03:25:55.229Z,97986.06
2023-03-20T03:28:21.557Z,97980.75
2023-03-20T03:30:47.892Z,97973.78
2023-03-20T03:33:14.353Z,97991.66
2023-03-20T03:35:40.716Z,97982.84
2023-03-20T03:38:07.064Z,97984.69
2023-03-20T03:40:33.382Z,97986.56
2023-03-20T03:42:59.802Z,97987.59
2023-03-20T03:45:26.340Z,97989.69
2023-03-20T03:47:52.779Z,97988.31
2023-03-20T03:50:19.135Z,97998.97
2023-03-20T03:52:45.422Z,97993.06
2023-03-20T03:55:11.816Z,97999.47
2023-03-20T03:57:38.164Z,97997.00
2023-03-20T04:00:05.734Z,97994.59
2023-03-20T04:02:32.089Z,97994.84
2023-03-20T04:04:58.485Z,97996.69
2023-03-20T04:07:25.028Z,97998.81
2023-03-20T04:09:51.340Z,98005.41
2023-03-20T04:12:18.091Z,98006.47
2023-03-20T04:14:44.573Z,98012.59
2023-03-20T04:17:11.656Z,98007.75
2023-03-20T04:19:38.012Z,98017.84
2023-03-20T04:22:05.276Z,98021.59
2023-03-20T04:24:31.703Z,98013.00
2023-03-20T04:26:58.876Z,98022.03
2023-03-20T04:29:25.600Z,98019.63
2023-03-20T04:31:51.949Z,98017.19
2023-03-20T04:34:19.084Z,98020.09
2023-03-20T04:36:45.570Z,98019.53
2023-03-20T04:39:11.914Z,98017.09
2023-03-20T04:41:38.573Z,98022.69
2023-03-20T04:44:04.901Z,98018.63
2023-03-20T04:46:31.238Z,98015.41
2023-03-20T04:48:59.268Z,98008.44
2023-03-20T04:51:25.624Z,98006.81
2023-03-20T04:53:51.998Z,97996.41
2023-03-20T04:56:18.435Z,97991.28
2023-03-20T04:58:46.992Z,97987.25
2023-03-20T05:01:13.419Z,97981.09
2023-03-20T05:03:40.124Z,97976.84
2023-03-20T05:06:07.572Z,97981.59
2023-03-20T05:08:34.661Z,97967.69
2023-03-20T05:11:01.048Z,97964.44
2023-03-20T05:13:27.364Z,97970.03
2023-03-20T05:15:54.663Z,97959.59
2023-03-20T05:18:20.953Z,97954.50
2023-03-20T05:20:47.441Z,97967.03
2023-03-20T05:23:14.727Z,97957.66
2023-03-20T05:25:41.626Z,97960.53
2023-03-20T05:28:08.198Z,97958.94
2023-03-20T05:30:34.711Z,97964.25
2023-03-20T05:33:01.173Z,97964.75
2023-03-20T05:35:27.777Z,97961.50
2023-03-20T05:37:54.787Z,97964.16
2023-03-20T05:40:21.187Z,97958.25
2023-03-20T05:42:47.675Z,97964.66
2023-03-20T05:45:13.960Z,97967.53
2023-03-20T05:47:40.272Z,97966.75
2023-03-20T05:50:06.679Z,97977.63
2023-03-20T05:52:33.741Z,97981.34
2023-03-20T05:55:00.033Z,97982.41
2023-03-20T05:57:26.433Z,97988.75
2023-03-20T05:59:53.080Z,97982.63
2023-03-20T06:02:19.443Z,97984.47
2023-03-20T06:04:45.749Z,97986.31
2023-03-20T06:07:12.103Z,97991.66
2023-03-20T06:09:38.847Z,97993.50
2023-03-20T06:12:05.129Z,97991.91
2023-03-20T06:14:31.826Z,97992.97
2023-03-20T06:16:58.142Z,97988.66
2023-03-20T06:19:25.770Z,97999.56
2023-03-20T06:21:52.033Z,97998.97
2023-03-20T06:24:19.073Z,97993.88
2023-03-20T06:26:45.311Z,97998.41
2023-03-20T06:29:11.617Z,97989.03
2023-03-20T06:31:37.981Z,97997.84
2023-03-20T06:34:04.554Z,97996.22
2023-03-20T06:36:30.886Z,98001.78
2023-03-20T06:38:57.378Z,98011.63
2023-03-20T06:41:34.272Z,98012.44
2023-03-20T06:44:01.587Z,98014.84
2023-03-20T06:46:27.935Z,98019.38
2023-03-20T06:48:54.582Z,98014.84
2023-03-20T06:51:21.643Z,98026.34
2023-03-20T06:53:48.881Z,98021.25
2023-03-20T06:56:15.657Z,98032.69
2023-03-20T06:58:42.645Z,98035.16
2023-03-20T07:01:08.927Z,98033.84
2023-03-20T07:03:35.455Z,98040.53
2023-03-20T07:06:01.876Z,98037.97
2023-03-20T07:08:28.328Z,98051.09
2023-03-20T07:10:54.744Z,98049.53
2023-03-20T07:13:21.200Z,98042.44
2023-03-20T07:16:03.007Z,98056.41
2023-03-20T07:18:29.997Z,98066.44
2023-03-20T07:20:57.313Z,98061.78
2023-03-20T07:23:23.944Z,98064.03
2023-03-20T07:25:51.197Z,98064.13
2023-03-20T07:28:17.594Z,98067.94
2023-03-20T07:30:43.886Z,98069.66
2023-03-20T07:33:11.308Z,98072.66
2023-03-20T07:35:38.063Z,98074.34
2023-03-20T07:38:05.098Z,98072.81
2023-03-20T07:40:31.605Z,98073.13
2023-03-20T07:42:58.010Z,98078.78
2023-03-20T07:45:24.680Z,98079.13
2023-03-20T07:47:51.209Z,98079.69
2023-03-20T07:50:17.543Z,98075.69
2023-03-20T07:52:43.890Z,98080.78
2023-03-20T07:55:10.180Z,98081.38
2023-03-20T07:57:37.259Z,98077.41
2023-03-20T08:00:04.068Z,98087.84
2023-03-20T08:02:30.447Z,98086.53
2023-03-20T08:04:56.867Z,98082.00
2023-03-20T08:07:23.356Z,98090.59
2023-03-20T08:09:50.063Z,98084.19
2023-03-20T08:12:17.103Z,98080.47
2023-03-20T08:14:43.824Z,98086.38
2023-03-20T08:17:15.585Z,98076.28
2023-03-20T08:19:43.420Z,98083.22
2023-03-20T08:22:11.184Z,98085.44
2023-03-20T08:24:37.692Z,98076.75
2023-03-20T08:27:04.617Z,98087.06
2023-03-20T08:29:31.714Z,98080.09
2023-03-20T08:31:57.992Z,98083.31
2023-03-20T08:34:24.451Z,98080.66
2023-03-20T08:36:50.731Z,98081.22
2023-03-20T08:39:17.801Z,98083.66
2023-03-20T08:41:44.629Z,98087.69
2023-03-20T08:44:11.155Z,98083.97
2023-03-20T08:46:37.833Z,98082.41
2023-03-20T08:49:05.481Z,98084.59
2023-03-20T08:51:31.857Z,98088.66
2023-03-20T08:53:58.980Z,98088.16
2023-03-20T08:56:25.410Z,98096.75
2023-03-20T08:58:54.151Z,98092.75
2023-03-20T09:01:21.153Z,98095.44
2023-03-20T09:03:47.563Z,98092.50
2023-03-20T09:06:14.151Z,98094.13
2023-03-20T09:08:40.568Z,98093.06
2023-03-20T09:11:07.823Z,98093.88
2023-03-20T09:13:34.638Z,98092.28
2023-03-20T09:16:01.266Z,98094.94
2023-03-20T09:18:27.858Z,98096.56
2023-03-20T09:20:54.491Z,98093.06
2023-03-20T09:23:20.888Z,98097.38
2023-03-20T09:25:47.588Z,98098.16
2023-03-20T09:28:14.945Z,98103.50
2023-03-20T09:30:41.599Z,98099.78
2023-03-20T09:33:08.879Z,98110.00
2023-03-20T09:35:35.380Z,98104.66
2023-03-20T09:38:01.823Z,98106.25
2023-03-20T09:40:28.102Z,98111.59
2023-03-20T09:42:54.673Z,98108.91
2023-03-20T09:45:21.196Z,98115.91
2023-03-20T09:47:47.563Z,98115.09
2023-03-20T09:50:15.453Z,98114.25
2023-03-20T09:52:42.003Z,98107.06
2023-03-20T09:55:09.167Z,98112.41
2023-03-20T09:57:35.887Z,98107.06
2023-03-20T10:00:02.284Z,98102.53
2023-03-20T10:02:28.665Z,98101.72
2023-03-20T10:04:55.778Z,98104.97
2023-03-20T10:07:22.271Z,98096.69
2023-03-20T10:09:48.716Z,98104.44
2023-03-20T10:12:15.978Z,98102.59
2023-03-20T10:14:42.425Z,98094.31
2023-03-20T10:17:09.260Z,98095.97
2023-03-20T10:19:35.695Z,98097.00
2023-03-20T10:22:02.005Z,98101.53
2023-03-20T10:24:28.342Z,98110.38
2023-03-20T10:26:57.870Z,98099.66
2023-03-20T10:29:24.267Z,98098.63
2023-03-20T10:31:50.702Z,98094.06
2023-03-20T10:34:17.192Z,98088.72
2023-03-20T10:36:43.604Z,98096.75
2023-03-20T10:39:09.919Z,98098.38
2023-03-20T10:41:36.475Z,98086.88
2023-03-20T10:44:03.029Z,98089.28
2023-03-20T10:46:29.482Z,98090.94
2023-03-20T10:48:56.323Z,98091.72
2023-03-20T10:51:22.705Z,98083.69
2023-03-20T10:53:49.035Z,98087.19
2023-03-20T10:56:17.046Z,98088.78
2023-03-20T10:58:44.186Z,98080.28
2023-03-20T11:01:19.901Z,98079.53
2023-03-20T11:03:50.598Z,98087.88
2023-03-20T11:06:17.888Z,98088.44
2023-03-20T11:08:44.355Z,98090.59
2023-03-20T11:11:11.031Z,98089.06
2023-03-20T11:13:38.214Z,98084.28
2023-03-20T11:16:05.231Z,98083.25
2023-03-20T11:18:32.392Z,98079.38
2023-03-20T11:20:58.701Z,98069.22
2023-03-20T11:23:25.108Z,98074.63
2023-03-20T11:25:52.268Z,98073.31
2023-03-20T11:28:18.661Z,98070.41
2023-03-20T11:31:03.300Z,98063.16
2023-03-20T11:33:30.714Z,98060.78
2023-03-20T11:35:57.183Z,98057.06
2023-03-20T11:38:23.706Z,98051.72
2023-03-20T11:43:54.792Z,98050.44
2023-03-20T11:46:21.221Z,98045.94
2023-03-20T11:48:47.728Z,98042.53
2023-03-20T11:51:14.068Z,98039.31
2023-03-20T11:53:40.791Z,98036.94
2023-03-20T11:56:07.168Z,98036.44
2023-03-20T11:58:34.055Z,98031.38
2023-03-20T12:01:00.327Z,98029.81
2023-03-20T12:03:26.790Z,98034.91
2023-03-20T12:05:53.730Z,98023.13
2023-03-20T12:08:20.133Z,98018.59
2023-03-20T12:10:46.561Z,98015.09
2023-03-20T12:13:13.829Z,98009.72
2023-03-20T12:15:40.297Z,98007.88
2023-03-20T12:18:06.719Z,98011.38
2023-03-20T12:20:33.704Z,98010.59
2023-03-20T12:23:00.144Z,98006.06
2023-03-20T12:25:27.242Z,97999.16
2023-03-20T12:27:53.582Z,97995.13
2023-03-20T12:30:20.187Z,97990.06
2023-03-20T12:32:46.625Z,97984.72
2023-03-20T12:35:14.783Z,97988.25
2023-03-20T12:37:42.559Z,97988.25
2023-03-20T12:40:09.041Z,97980.53
2023-03-20T12:42:35.678Z,97982.69
2023-03-20T12:45:02.186Z,97981.09
2023-03-20T12:47:28.631Z,97975.22
2023-03-20T12:49:55.012Z,97976.59
2023-03-20T12:52:21.920Z,97977.69
2023-03-20T12:54:48.520Z,97979.84
2023-03-20T12:57:15.671Z,97971.81
2023-03-20T12:59:42.172Z,97966.44
2023-03-20T13:02:08.914Z,97962.94
2023-03-20T13:04:35.358Z,97959.47
2023-03-20T13:09:49.232Z,97954.66
2023-03-20T13:12:15.844Z,97957.63
2023-03-20T13:14:42.303Z,97954.66
2023-03-20T13:17:08.616Z,97954.94
2023-03-20T13:19:34.959Z,97950.41
2023-03-20T13:22:01.290Z,97953.91
2023-03-20T13:24:28.105Z,97953.09
2023-03-20T13:26:54.498Z,97950.41
2023-03-20T13:29:21.230Z,97950.41
2023-03-20T13:31:47.650Z,97935.69
2023-03-20T13:34:14.809Z,97935.69
2023-03-20T13:36:41.257Z,97931.66
2023-03-20T13:39:08.155Z,97928.97
2023-03-20T13:41:35.056Z,97937.56
2023-03-20T13:44:01.452Z,97933.28
2023-03-20T13:46:27.756Z,97929.53
2023-03-20T13:48:54.237Z,97932.22
2023-03-20T13:51:20.591Z,97929.53
2023-03-20T13:53:46.971Z,97926.84
2023-03-20T13:56:13.406Z,97933.28
2023-03-20T13:58:39.746Z,97930.88
2023-03-20T14:01:07.063Z,97928.44
2023-03-20T14:03:33.495Z,97925.22
2023-03-20T14:05:59.836Z,97928.16
2023-03-20T14:08:26.168Z,97927.38
2023-03-20T14:10:52.593Z,97934.59
2023-03-20T14:13:18.975Z,97930.03
2023-03-20T14:15:46.299Z,97932.72
2023-03-20T14:18:13.184Z,97937.28
2023-03-20T14:20:39.603Z,97926.81
2023-03-20T14:23:06.536Z,97940.22
2023-03-20T14:25:32.915Z,97930.78
2023-03-20T14:27:59.327Z,97936.19
2023-03-20T14:30:25.776Z,97934.31
2023-03-20T14:32:52.879Z,97933.00
2023-03-20T14:35:19.621Z,97931.94
2023-03-20T14:37:46.633Z,97929.78
2023-03-20T14:40:13.239Z,97930.59
2023-03-20T14:42:39.661Z,97927.66
2023-03-20T14:45:06.675Z,97927.66
2023-03-20T14:47:33.233Z,97922.03
2023-03-20T14:49:59.925Z,97919.34
2023-03-20T14:52:26.392Z,97924.72
2023-03-20T14:54:52.775Z,97920.44
2023-03-20T14:57:19.106Z,97926.03
2023-03-20T14:59:45.456Z,97926.31
2023-03-20T15:02:12.906Z,97931.66
2023-03-20T15:04:39.427Z,97933.56
2023-03-20T15:07:05.749Z,97931.94
2023-03-20T15:09:32.092Z,97930.31
2023-03-20T15:11:58.400Z,97936.47
2023-03-20T15:14:24.719Z,97939.16
2023-03-20T15:16:51.614Z,97938.38
2023-03-20T15:19:18.335Z,97935.97
2023-03-20T15:21:44.733Z,97936.75
2023-03-20T15:24:11.004Z,97935.13
2023-03-20T15:26:37.301Z,97934.31
2023-03-20T15:29:04.183Z,97928.97
2023-03-20T15:31:31.337Z,97934.31
2023-03-20T15:33:57.746Z,97932.72
2023-03-20T15:36:25.084Z,97933.00
2023-03-20T15:38:51.377Z,97924.13
2023-03-20T15:41:18.439Z,97939.41
2023-03-20T15:43:44.896Z,97938.59
2023-03-20T15:46:18.557Z,97939.94
2023-03-20T15:48:45.500Z,97940.19
2023-03-20T15:51:11.850Z,97940.47
2023-03-20T15:53:38.138Z,97940.69
2023-03-20T15:56:17.194Z,97928.63
2023-03-20T15:58:44.430Z,97929.72
2023-03-20T16:01:11.535Z,97929.94
2023-03-20T16:03:37.857Z,97931.03
2023-03-20T16:06:04.501Z,97927.00
2023-03-20T16:08:31.630Z,97929.94
2023-03-20T16:10:57.977Z,97927.25
2023-03-20T16:13:24.335Z,97931.00
2023-03-20T16:15:51.654Z,97929.38
2023-03-20T16:18:18.191Z,97920.28
2023-03-20T16:20:44.506Z,97926.47
2023-03-20T16:23:10.846Z,97925.66
2023-03-20T16:25:37.348Z,97929.94
2023-03-20T16:28:04.710Z,97927.25
2023-03-20T16:30:30.977Z,97928.34
2023-03-20T16:32:57.455Z,97930.19
2023-03-20T16:35:23.798Z,97929.38
2023-03-20T16:37:50.131Z,97925.09
2023-03-20T16:40:16.498Z,97919.75
2023-03-20T16:42:43.081Z,97925.38
2023-03-20T16:45:09.404Z,97922.94
2023-03-20T16:47:35.737Z,97926.69
2023-03-20T16:50:02.985Z,97934.16
2023-03-20T16:52:29.610Z,97932.56
2023-03-20T16:54:56.365Z,97933.66
2023-03-20T16:57:22.816Z,97932.25
2023-03-20T16:59:49.952Z,97931.44
2023-03-20T17:02:16.618Z,97931.94
2023-03-20T17:04:44.062Z,97929.81
2023-03-20T17:07:10.446Z,97941.56
2023-03-20T17:09:36.817Z,97934.88
2023-03-20T17:12:03.167Z,97937.56
2023-03-20T17:14:30.519Z,97930.56
2023-03-20T17:16:56.940Z,97944.78
2023-03-20T17:19:24.337Z,97947.44
2023-03-20T17:21:51.513Z,97948.53
2023-03-20T17:24:17.979Z,97944.22
2023-03-20T17:26:44.276Z,97947.97
2023-03-20T17:29:10.608Z,97952.50
2023-03-20T17:31:37.423Z,97957.06
2023-03-20T17:34:03.892Z,97950.91
2023-03-20T17:36:30.311Z,97953.84
2023-03-20T17:38:56.885Z,97962.13
2023-03-20T17:41:23.447Z,97965.88
2023-03-20T17:43:49.865Z,97957.03
2023-03-20T17:46:16.556Z,97962.63
2023-03-20T17:48:43.002Z,97959.41
2023-03-20T17:51:09.466Z,97963.16
2023-03-20T17:53:35.983Z,97973.06
2023-03-20T17:56:02.597Z,97976.00
2023-03-20T17:58:29.973Z,97969.03
2023-03-20T18:00:56.422Z,97982.66
2023-03-20T18:03:22.865Z,97975.69
2023-03-20T18:05:49.426Z,97968.97
2023-03-20T18:08:15.932Z,97971.91
2023-03-20T18:10:42.951Z,97972.16
2023-03-20T18:13:09.219Z,97975.09
2023-03-20T18:15:35.659Z,97967.34
2023-03-20T18:18:02.157Z,97959.56
2023-03-20T18:20:28.582Z,97964.38
2023-03-20T18:22:54.958Z,97969.72
2023-03-20T18:25:21.351Z,97969.16
2023-03-20T18:27:47.704Z,97967.56
2023-03-20T18:30:14.094Z,97958.97
2023-03-20T18:32:40.583Z,97967.25
2023-03-20T18:35:07.024Z,97966.44
2023-03-20T18:37:33.969Z,97962.41
2023-03-20T18:40:00.728Z,97958.13
2023-03-20T18:42:27.955Z,97959.19
2023-03-20T18:44:57.238Z,97965.59
2023-03-20T18:47:23.504Z,97965.84
2023-03-20T18:49:49.744Z,97965.03
2023-03-20T18:52:17.137Z,97967.97
2023-03-20T18:54:43.503Z,97967.41
2023-03-20T18:57:09.887Z,97960.47
2023-03-20T18:59:36.194Z,97958.81
2023-03-20T19:02:02.617Z,97967.66
2023-03-20T19:04:29.494Z,97960.72
2023-03-20T19:06:55.842Z,97959.91
2023-03-20T19:09:22.533Z,97968.75
2023-03-20T19:11:49.806Z,97961.50
2023-03-20T19:14:16.134Z,97968.50
2023-03-20T19:16:43.012Z,97961.00
2023-03-20T19:19:09.455Z,97965.28
2023-03-20T19:21:36.634Z,97959.69
2023-03-20T19:24:02.940Z,97963.72
2023-03-20T19:26:29.542Z,97966.41
2023-03-20T19:28:55.901Z,97962.66
2023-03-20T19:31:22.244Z,97969.66
2023-03-20T19:33:49.414Z,97960.78
2023-03-20T19:36:16.073Z,97961.63
2023-03-20T19:38:42.815Z,97958.94
2023-03-20T19:41:09.411Z,97959.72
2023-03-20T19:43:51.372Z,97957.84
2023-03-20T19:46:37.782Z,97961.63
2023-03-20T19:49:06.713Z,97968.56
2023-03-20T19:51:33.315Z,97959.72
2023-03-20T19:53:59.742Z,97961.63
2023-03-20T19:56:26.051Z,97959.19
2023-03-20T19:58:52.920Z,97958.38
2023-03-20T20:01:19.988Z,97954.06
2023-03-20T20:03:47.616Z,97952.47
2023-03-20T20:06:14.914Z,97964.25
2023-03-20T20:08:48.478Z,97954.59
2023-03-20T20:11:15.428Z,97961.00
2023-03-20T20:14:01.871Z,97956.16
2023-03-20T20:16:28.102Z,97941.38
2023-03-20T20:18:54.459Z,97958.31
2023-03-20T20:22:09.814Z,97963.66
2023-03-20T20:24:07.094Z,97956.09
2023-03-20T20:26:38.888Z,97956.09
2023-03-20T20:29:07.479Z,97954.50
2023-03-20T20:31:33.884Z,97958.22
2023-03-20T20:34:39.970Z,97958.50
2023-03-20T20:39:33.168Z,97958.19
2023-03-20T20:41:59.509Z,97956.59
2023-03-20T20:44:25.992Z,97957.66
2023-03-20T20:46:52.391Z,97957.09
2023-03-20T20:49:21.024Z,97954.88
2023-03-20T20:51:47.318Z,97950.59
2023-03-20T20:54:13.641Z,97953.53
2023-03-20T20:56:39.904Z,97947.88
2023-03-20T20:59:06.360Z,97946.25
2023-03-20T21:01:33.842Z,97951.84
2023-03-20T21:04:00.186Z,97953.75
2023-03-20T21:06:57.860Z,97945.16
2023-03-20T21:09:12.870Z,97949.94
2023-03-20T21:11:42.233Z,97950.22
2023-03-20T21:14:08.563Z,97951.25
2023-03-20T21:16:35.539Z,97946.97
2023-03-20T21:19:02.020Z,97947.78
2023-03-20T21:21:28.359Z,97945.91
2023-03-20T21:23:55.410Z,97950.22
2023-03-20T21:26:21.854Z,97949.94
2023-03-20T21:28:48.248Z,97948.09
2023-03-20T21:31:24.494Z,97946.19
2023-03-20T21:33:53.417Z,97949.44
2023-03-20T21:36:19.928Z,97943.84
2023-03-20T21:41:32.724Z,97946.75
2023-03-20T21:44:01.268Z,97950.50
2023-03-20T22:03:10.889Z,97936.59
2023-03-20T22:11:56.593Z,97943.78
2023-03-20T22:17:40.694Z,97938.69
2023-03-20T22:23:07.688Z,97942.44
2023-03-20T22:34:09.807Z,97939.59
2023-03-20T22:39:28.186Z,97933.22
2023-03-20T22:44:57.188Z,97937.84
2023-03-20T22:47:19.429Z,97927.59
2023-03-20T22:49:46.502Z,97924.06
2023-03-20T22:52:26.561Z,97923.97
2023-03-20T22:54:58.363Z,97931.91
2023-03-20T22:57:38.514Z,97920.13
2023-03-20T23:00:09.033Z,97915.75
2023-03-20T23:02:35.512Z,97915.69
2023-03-20T23:05:01.846Z,97919.13
2023-03-20T23:07:28.229Z,97919.84
2023-03-20T23:09:55.026Z,97913.41
2023-03-20T23:12:21.342Z,97917.59
2023-03-20T23:14:48.544Z,97913.81
2023-03-20T23:17:14.879Z,97917.78
2023-03-20T23:19:47.779Z,97912.13
2023-03-20T23:22:16.262Z,97910.19
2023-03-20T23:24:42.612Z,97912.53
2023-03-20T23:27:09.092Z,97916.78
2023-03-20T23:29:36.012Z,97907.63
2023-03-20T23:32:02.443Z,97908.34
2023-03-20T23:34:28.760Z,97905.34
2023-03-20T23:36:55.158Z,97908.53
2023-03-20T23:39:21.516Z,97900.19
2023-03-20T23:42:17.462Z,97912.19
2023-03-20T23:44:35.028Z,97906.53
2023-03-20T23:47:11.235Z,97900.88
2023-03-20T23:49:40.841Z,97900.25
2023-03-20T23:52:07.420Z,97891.94
2023-03-20T23:54:33.647Z,97894.03
2023-03-20T23:56:59.897Z,97889.19
2023-03-20T23:59:26.954Z,97893.16
